sensor_id;sensor_type;location;lat;lon;timestamp;P1;durP1;ratioP1;P2;durP2;ratioP2
82159;SDS011;71734;50.876;7.372;2024-01-16T00:00:36;11.52;;;4.47;;
82159;SDS011;71734;50.876;7.372;2024-01-16T00:03:03;11.82;;;4.32;;
82159;SDS011;71734;50.876;7.372;2024-01-16T00:05:29;11.52;;;4.70;;
82159;SDS011;71734;50.876;7.372;2024-01-16T00:07:56;11.60;;;4.55;;
82159;SDS011;71734;50.876;7.372;2024-01-16T00:10:24;12.45;;;4.95;;
82159;SDS011;71734;50.876;7.372;2024-01-16T00:12:52;10.48;;;4.40;;
82159;SDS011;71734;50.876;7.372;2024-01-16T00:15:20;11.63;;;4.45;;
82159;SDS011;71734;50.876;7.372;2024-01-16T00:17:46;14.40;;;5.30;;
82159;SDS011;71734;50.876;7.372;2024-01-16T00:20:13;12.27;;;4.72;;
82159;SDS011;71734;50.876;7.372;2024-01-16T00:22:40;15.88;;;5.03;;
82159;SDS011;71734;50.876;7.372;2024-01-16T00:25:07;13.18;;;4.85;;
82159;SDS011;71734;50.876;7.372;2024-01-16T00:27:33;11.63;;;5.28;;
82159;SDS011;71734;50.876;7.372;2024-01-16T00:30:01;12.57;;;5.10;;
82159;SDS011;71734;50.876;7.372;2024-01-16T00:32:28;11.80;;;4.85;;
82159;SDS011;71734;50.876;7.372;2024-01-16T00:34:54;12.00;;;4.38;;
82159;SDS011;71734;50.876;7.372;2024-01-16T00:37:21;12.27;;;4.88;;
82159;SDS011;71734;50.876;7.372;2024-01-16T00:39:47;12.43;;;4.40;;
82159;SDS011;71734;50.876;7.372;2024-01-16T00:42:14;9.88;;;4.68;;
82159;SDS011;71734;50.876;7.372;2024-01-16T00:44:40;13.90;;;4.75;;
82159;SDS011;71734;50.876;7.372;2024-01-16T00:47:08;11.30;;;4.80;;
82159;SDS011;71734;50.876;7.372;2024-01-16T00:49:35;13.95;;;5.20;;
82159;SDS011;71734;50.876;7.372;2024-01-16T00:52:01;12.73;;;4.95;;
82159;SDS011;71734;50.876;7.372;2024-01-16T00:54:28;11.90;;;4.82;;
82159;SDS011;71734;50.876;7.372;2024-01-16T00:56:55;11.85;;;4.75;;
82159;SDS011;71734;50.876;7.372;2024-01-16T00:59:24;13.25;;;5.25;;
82159;SDS011;71734;50.876;7.372;2024-01-16T01:01:51;11.75;;;4.78;;
82159;SDS011;71734;50.876;7.372;2024-01-16T01:04:19;17.00;;;5.38;;
82159;SDS011;71734;50.876;7.372;2024-01-16T01:06:45;10.75;;;4.80;;
82159;SDS011;71734;50.876;7.372;2024-01-16T01:09:12;12.50;;;4.90;;
82159;SDS011;71734;50.876;7.372;2024-01-16T01:11:38;11.75;;;5.25;;
82159;SDS011;71734;50.876;7.372;2024-01-16T01:14:05;15.88;;;5.75;;
82159;SDS011;71734;50.876;7.372;2024-01-16T01:16:31;12.65;;;6.00;;
82159;SDS011;71734;50.876;7.372;2024-01-16T01:18:58;12.55;;;5.38;;
82159;SDS011;71734;50.876;7.372;2024-01-16T01:21:26;13.23;;;6.05;;
82159;SDS011;71734;50.876;7.372;2024-01-16T01:23:53;13.75;;;6.78;;
82159;SDS011;71734;50.876;7.372;2024-01-16T01:26:19;16.15;;;6.55;;
82159;SDS011;71734;50.876;7.372;2024-01-16T01:28:46;15.07;;;6.43;;
82159;SDS011;71734;50.876;7.372;2024-01-16T01:31:12;13.40;;;5.72;;
82159;SDS011;71734;50.876;7.372;2024-01-16T01:33:39;14.45;;;6.38;;
82159;SDS011;71734;50.876;7.372;2024-01-16T01:36:06;14.55;;;6.07;;
82159;SDS011;71734;50.876;7.372;2024-01-16T01:38:33;13.95;;;6.25;;
82159;SDS011;71734;50.876;7.372;2024-01-16T01:41:00;16.48;;;6.63;;
82159;SDS011;71734;50.876;7.372;2024-01-16T01:43:26;14.90;;;5.72;;
82159;SDS011;71734;50.876;7.372;2024-01-16T01:45:58;12.15;;;6.20;;
82159;SDS011;71734;50.876;7.372;2024-01-16T01:48:34;13.57;;;6.40;;
82159;SDS011;71734;50.876;7.372;2024-01-16T01:51:02;13.30;;;6.18;;
82159;SDS011;71734;50.876;7.372;2024-01-16T01:53:29;13.90;;;6.00;;
82159;SDS011;71734;50.876;7.372;2024-01-16T01:55:58;12.93;;;5.72;;
82159;SDS011;71734;50.876;7.372;2024-01-16T01:58:25;13.77;;;6.18;;
82159;SDS011;71734;50.876;7.372;2024-01-16T02:00:52;13.15;;;5.45;;
82159;SDS011;71734;50.876;7.372;2024-01-16T02:03:18;17.00;;;5.85;;
82159;SDS011;71734;50.876;7.372;2024-01-16T02:05:46;12.75;;;6.10;;
82159;SDS011;71734;50.876;7.372;2024-01-16T02:08:12;14.70;;;6.38;;
82159;SDS011;71734;50.876;7.372;2024-01-16T02:10:39;12.50;;;5.72;;
82159;SDS011;71734;50.876;7.372;2024-01-16T02:13:13;15.32;;;5.53;;
82159;SDS011;71734;50.876;7.372;2024-01-16T02:15:39;13.05;;;5.78;;
82159;SDS011;71734;50.876;7.372;2024-01-16T02:18:06;13.10;;;5.50;;
82159;SDS011;71734;50.876;7.372;2024-01-16T02:20:33;12.95;;;5.75;;
82159;SDS011;71734;50.876;7.372;2024-01-16T02:22:59;11.50;;;5.60;;
82159;SDS011;71734;50.876;7.372;2024-01-16T02:25:30;12.02;;;5.03;;
82159;SDS011;71734;50.876;7.372;2024-01-16T02:27:59;12.13;;;5.05;;
82159;SDS011;71734;50.876;7.372;2024-01-16T02:30:27;12.23;;;5.15;;
82159;SDS011;71734;50.876;7.372;2024-01-16T02:32:53;12.88;;;5.07;;
82159;SDS011;71734;50.876;7.372;2024-01-16T02:35:19;10.35;;;4.60;;
82159;SDS011;71734;50.876;7.372;2024-01-16T02:37:46;11.40;;;4.60;;
82159;SDS011;71734;50.876;7.372;2024-01-16T02:40:13;11.40;;;5.05;;
82159;SDS011;71734;50.876;7.372;2024-01-16T02:42:40;12.13;;;4.82;;
82159;SDS011;71734;50.876;7.372;2024-01-16T02:45:07;11.10;;;4.72;;
82159;SDS011;71734;50.876;7.372;2024-01-16T02:47:34;15.18;;;4.70;;
82159;SDS011;71734;50.876;7.372;2024-01-16T02:50:01;11.45;;;5.40;;
82159;SDS011;71734;50.876;7.372;2024-01-16T02:52:28;12.70;;;5.32;;
82159;SDS011;71734;50.876;7.372;2024-01-16T02:54:55;9.52;;;4.65;;
82159;SDS011;71734;50.876;7.372;2024-01-16T02:57:21;12.57;;;5.18;;
82159;SDS011;71734;50.876;7.372;2024-01-16T02:59:49;10.25;;;5.35;;
82159;SDS011;71734;50.876;7.372;2024-01-16T03:02:15;11.32;;;5.30;;
82159;SDS011;71734;50.876;7.372;2024-01-16T03:04:42;13.88;;;5.45;;
82159;SDS011;71734;50.876;7.372;2024-01-16T03:07:08;15.55;;;5.85;;
82159;SDS011;71734;50.876;7.372;2024-01-16T03:09:35;11.88;;;5.65;;
82159;SDS011;71734;50.876;7.372;2024-01-16T03:12:02;14.38;;;6.13;;
82159;SDS011;71734;50.876;7.372;2024-01-16T03:14:28;14.77;;;6.15;;
82159;SDS011;71734;50.876;7.372;2024-01-16T03:17:00;15.05;;;6.40;;
82159;SDS011;71734;50.876;7.372;2024-01-16T03:19:27;13.40;;;5.72;;
82159;SDS011;71734;50.876;7.372;2024-01-16T03:21:53;12.43;;;5.47;;
82159;SDS011;71734;50.876;7.372;2024-01-16T03:24:19;14.48;;;5.55;;
82159;SDS011;71734;50.876;7.372;2024-01-16T03:26:46;14.98;;;5.25;;
82159;SDS011;71734;50.876;7.372;2024-01-16T03:29:13;12.13;;;5.10;;
82159;SDS011;71734;50.876;7.372;2024-01-16T03:31:39;11.70;;;4.88;;
82159;SDS011;71734;50.876;7.372;2024-01-16T03:34:07;11.50;;;4.90;;
82159;SDS011;71734;50.876;7.372;2024-01-16T03:36:35;14.48;;;5.50;;
82159;SDS011;71734;50.876;7.372;2024-01-16T03:39:02;11.48;;;5.03;;
82159;SDS011;71734;50.876;7.372;2024-01-16T03:41:29;11.15;;;4.88;;
82159;SDS011;71734;50.876;7.372;2024-01-16T03:43:55;13.50;;;5.13;;
82159;SDS011;71734;50.876;7.372;2024-01-16T03:46:22;15.23;;;5.18;;
82159;SDS011;71734;50.876;7.372;2024-01-16T03:48:48;13.05;;;5.00;;
82159;SDS011;71734;50.876;7.372;2024-01-16T03:51:17;11.20;;;4.55;;
82159;SDS011;71734;50.876;7.372;2024-01-16T03:53:44;12.13;;;5.03;;
82159;SDS011;71734;50.876;7.372;2024-01-16T03:56:11;13.80;;;5.07;;
82159;SDS011;71734;50.876;7.372;2024-01-16T03:58:38;11.80;;;4.82;;
82159;SDS011;71734;50.876;7.372;2024-01-16T04:01:06;11.98;;;4.82;;
82159;SDS011;71734;50.876;7.372;2024-01-16T04:03:32;10.82;;;4.80;;
82159;SDS011;71734;50.876;7.372;2024-01-16T04:06:00;12.82;;;4.97;;
82159;SDS011;71734;50.876;7.372;2024-01-16T04:08:27;14.15;;;5.68;;
82159;SDS011;71734;50.876;7.372;2024-01-16T04:10:54;10.45;;;4.90;;
82159;SDS011;71734;50.876;7.372;2024-01-16T04:13:20;13.52;;;5.07;;
82159;SDS011;71734;50.876;7.372;2024-01-16T04:15:47;13.80;;;6.18;;
82159;SDS011;71734;50.876;7.372;2024-01-16T04:18:13;13.88;;;5.03;;
82159;SDS011;71734;50.876;7.372;2024-01-16T04:20:40;14.57;;;5.13;;
82159;SDS011;71734;50.876;7.372;2024-01-16T04:23:06;11.15;;;5.10;;
82159;SDS011;71734;50.876;7.372;2024-01-16T04:25:34;12.70;;;5.28;;
82159;SDS011;71734;50.876;7.372;2024-01-16T04:28:01;13.00;;;5.07;;
82159;SDS011;71734;50.876;7.372;2024-01-16T04:30:27;14.02;;;4.90;;
82159;SDS011;71734;50.876;7.372;2024-01-16T04:32:54;12.35;;;5.00;;
82159;SDS011;71734;50.876;7.372;2024-01-16T04:35:20;13.27;;;5.10;;
82159;SDS011;71734;50.876;7.372;2024-01-16T04:37:47;12.30;;;5.20;;
82159;SDS011;71734;50.876;7.372;2024-01-16T04:40:13;12.95;;;5.28;;
82159;SDS011;71734;50.876;7.372;2024-01-16T04:42:41;13.50;;;5.63;;
82159;SDS011;71734;50.876;7.372;2024-01-16T04:45:09;12.07;;;5.30;;
82159;SDS011;71734;50.876;7.372;2024-01-16T04:47:35;13.43;;;4.93;;
82159;SDS011;71734;50.876;7.372;2024-01-16T04:50:02;15.95;;;5.65;;
82159;SDS011;71734;50.876;7.372;2024-01-16T04:52:28;12.00;;;5.82;;
82159;SDS011;71734;50.876;7.372;2024-01-16T04:54:55;15.05;;;6.15;;
82159;SDS011;71734;50.876;7.372;2024-01-16T04:57:21;14.15;;;5.47;;
82159;SDS011;71734;50.876;7.372;2024-01-16T04:59:49;13.45;;;5.85;;
82159;SDS011;71734;50.876;7.372;2024-01-16T05:02:16;14.85;;;6.97;;
82159;SDS011;71734;50.876;7.372;2024-01-16T05:04:43;15.90;;;6.18;;
82159;SDS011;71734;50.876;7.372;2024-01-16T05:07:10;14.90;;;6.55;;
82159;SDS011;71734;50.876;7.372;2024-01-16T05:09:37;18.13;;;6.75;;
82159;SDS011;71734;50.876;7.372;2024-01-16T05:12:03;15.15;;;6.35;;
82159;SDS011;71734;50.876;7.372;2024-01-16T05:14:30;17.27;;;6.63;;
82159;SDS011;71734;50.876;7.372;2024-01-16T05:16:58;14.63;;;6.28;;
82159;SDS011;71734;50.876;7.372;2024-01-16T05:19:24;14.65;;;6.15;;
82159;SDS011;71734;50.876;7.372;2024-01-16T05:21:51;18.05;;;6.82;;
82159;SDS011;71734;50.876;7.372;2024-01-16T05:24:17;14.18;;;6.68;;
82159;SDS011;71734;50.876;7.372;2024-01-16T05:26:44;14.75;;;6.78;;
82159;SDS011;71734;50.876;7.372;2024-01-16T05:29:10;12.32;;;6.20;;
82159;SDS011;71734;50.876;7.372;2024-01-16T05:31:39;18.00;;;6.63;;
82159;SDS011;71734;50.876;7.372;2024-01-16T05:34:08;14.18;;;6.45;;
82159;SDS011;71734;50.876;7.372;2024-01-16T05:36:35;17.15;;;7.15;;
82159;SDS011;71734;50.876;7.372;2024-01-16T05:39:01;15.48;;;6.60;;
82159;SDS011;71734;50.876;7.372;2024-01-16T05:41:31;18.85;;;6.22;;
82159;SDS011;71734;50.876;7.372;2024-01-16T05:43:58;15.27;;;6.40;;
82159;SDS011;71734;50.876;7.372;2024-01-16T05:46:25;15.25;;;6.38;;
82159;SDS011;71734;50.876;7.372;2024-01-16T05:48:52;11.43;;;5.38;;
82159;SDS011;71734;50.876;7.372;2024-01-16T05:51:20;15.95;;;6.03;;
82159;SDS011;71734;50.876;7.372;2024-01-16T05:53:46;12.23;;;5.60;;
82159;SDS011;71734;50.876;7.372;2024-01-16T05:56:13;14.35;;;5.65;;
82159;SDS011;71734;50.876;7.372;2024-01-16T05:58:39;14.50;;;5.78;;
82159;SDS011;71734;50.876;7.372;2024-01-16T06:01:06;13.15;;;5.25;;
82159;SDS011;71734;50.876;7.372;2024-01-16T06:03:32;12.13;;;5.40;;
82159;SDS011;71734;50.876;7.372;2024-01-16T06:05:59;14.35;;;5.63;;
82159;SDS011;71734;50.876;7.372;2024-01-16T06:08:26;15.90;;;6.00;;
82159;SDS011;71734;50.876;7.372;2024-01-16T06:10:53;13.10;;;5.55;;
82159;SDS011;71734;50.876;7.372;2024-01-16T06:13:20;13.00;;;4.97;;
82159;SDS011;71734;50.876;7.372;2024-01-16T06:15:47;11.07;;;4.57;;
82159;SDS011;71734;50.876;7.372;2024-01-16T06:18:14;17.95;;;5.50;;
82159;SDS011;71734;50.876;7.372;2024-01-16T06:20:40;10.13;;;4.43;;
82159;SDS011;71734;50.876;7.372;2024-01-16T06:23:07;15.02;;;5.32;;
82159;SDS011;71734;50.876;7.372;2024-01-16T06:25:35;12.07;;;4.88;;
82159;SDS011;71734;50.876;7.372;2024-01-16T06:28:01;10.23;;;4.90;;
82159;SDS011;71734;50.876;7.372;2024-01-16T06:30:30;12.45;;;4.85;;
82159;SDS011;71734;50.876;7.372;2024-01-16T06:32:56;12.07;;;5.13;;
82159;SDS011;71734;50.876;7.372;2024-01-16T06:35:23;12.27;;;4.70;;
82159;SDS011;71734;50.876;7.372;2024-01-16T06:37:49;11.88;;;4.80;;
82159;SDS011;71734;50.876;7.372;2024-01-16T06:40:16;14.15;;;4.72;;
82159;SDS011;71734;50.876;7.372;2024-01-16T06:42:47;13.07;;;5.32;;
82159;SDS011;71734;50.876;7.372;2024-01-16T06:45:13;10.80;;;4.80;;
82159;SDS011;71734;50.876;7.372;2024-01-16T06:47:40;13.95;;;5.22;;
82159;SDS011;71734;50.876;7.372;2024-01-16T06:50:07;13.85;;;4.95;;
82159;SDS011;71734;50.876;7.372;2024-01-16T06:52:34;12.15;;;4.32;;
82159;SDS011;71734;50.876;7.372;2024-01-16T06:55:01;11.80;;;5.00;;
82159;SDS011;71734;50.876;7.372;2024-01-16T06:57:27;12.50;;;4.15;;
82159;SDS011;71734;50.876;7.372;2024-01-16T06:59:55;11.00;;;3.90;;
82159;SDS011;71734;50.876;7.372;2024-01-16T07:02:21;11.38;;;4.50;;
82159;SDS011;71734;50.876;7.372;2024-01-16T07:04:48;10.75;;;4.40;;
82159;SDS011;71734;50.876;7.372;2024-01-16T07:07:14;13.25;;;4.70;;
82159;SDS011;71734;50.876;7.372;2024-01-16T07:09:41;9.73;;;4.32;;
82159;SDS011;71734;50.876;7.372;2024-01-16T07:12:07;10.40;;;3.83;;
82159;SDS011;71734;50.876;7.372;2024-01-16T07:14:34;11.85;;;4.00;;
82159;SDS011;71734;50.876;7.372;2024-01-16T07:17:08;12.48;;;4.03;;
82159;SDS011;71734;50.876;7.372;2024-01-16T07:19:35;9.88;;;4.15;;
82159;SDS011;71734;50.876;7.372;2024-01-16T07:22:03;10.75;;;3.67;;
82159;SDS011;71734;50.876;7.372;2024-01-16T07:24:29;8.77;;;3.88;;
82159;SDS011;71734;50.876;7.372;2024-01-16T07:26:56;9.48;;;3.78;;
82159;SDS011;71734;50.876;7.372;2024-01-16T07:29:23;11.88;;;3.67;;
82159;SDS011;71734;50.876;7.372;2024-01-16T07:31:49;12.75;;;3.80;;
82159;SDS011;71734;50.876;7.372;2024-01-16T07:34:18;11.20;;;3.58;;
82159;SDS011;71734;50.876;7.372;2024-01-16T07:36:47;11.30;;;3.55;;
82159;SDS011;71734;50.876;7.372;2024-01-16T07:39:13;10.80;;;3.60;;
82159;SDS011;71734;50.876;7.372;2024-01-16T07:41:40;7.57;;;3.10;;
82159;SDS011;71734;50.876;7.372;2024-01-16T07:44:06;9.20;;;2.90;;
82159;SDS011;71734;50.876;7.372;2024-01-16T07:46:33;8.65;;;3.17;;
82159;SDS011;71734;50.876;7.372;2024-01-16T07:48:59;10.40;;;3.20;;
82159;SDS011;71734;50.876;7.372;2024-01-16T07:51:27;7.60;;;2.35;;
82159;SDS011;71734;50.876;7.372;2024-01-16T07:54:04;7.15;;;2.85;;
82159;SDS011;71734;50.876;7.372;2024-01-16T07:56:31;9.48;;;2.85;;
82159;SDS011;71734;50.876;7.372;2024-01-16T07:58:58;7.80;;;2.70;;
82159;SDS011;71734;50.876;7.372;2024-01-16T08:01:24;8.60;;;3.00;;
82159;SDS011;71734;50.876;7.372;2024-01-16T08:03:51;9.75;;;2.80;;
82159;SDS011;71734;50.876;7.372;2024-01-16T08:06:17;11.85;;;3.22;;
82159;SDS011;71734;50.876;7.372;2024-01-16T08:08:45;11.20;;;2.67;;
82159;SDS011;71734;50.876;7.372;2024-01-16T08:11:12;11.05;;;3.08;;
82159;SDS011;71734;50.876;7.372;2024-01-16T08:13:38;8.75;;;2.55;;
82159;SDS011;71734;50.876;7.372;2024-01-16T08:16:05;10.07;;;3.10;;
82159;SDS011;71734;50.876;7.372;2024-01-16T08:18:32;9.95;;;2.75;;
82159;SDS011;71734;50.876;7.372;2024-01-16T08:20:58;9.18;;;2.63;;
82159;SDS011;71734;50.876;7.372;2024-01-16T08:23:25;8.90;;;2.88;;
82159;SDS011;71734;50.876;7.372;2024-01-16T08:25:54;9.75;;;2.60;;
82159;SDS011;71734;50.876;7.372;2024-01-16T08:28:20;7.05;;;2.53;;
82159;SDS011;71734;50.876;7.372;2024-01-16T08:30:49;8.18;;;2.50;;
82159;SDS011;71734;50.876;7.372;2024-01-16T08:33:15;11.52;;;3.22;;
82159;SDS011;71734;50.876;7.372;2024-01-16T08:35:42;6.68;;;2.22;;
82159;SDS011;71734;50.876;7.372;2024-01-16T08:38:09;8.23;;;2.40;;
82159;SDS011;71734;50.876;7.372;2024-01-16T08:40:36;12.70;;;2.88;;
82159;SDS011;71734;50.876;7.372;2024-01-16T08:43:04;9.05;;;2.70;;
82159;SDS011;71734;50.876;7.372;2024-01-16T08:45:30;10.55;;;2.42;;
82159;SDS011;71734;50.876;7.372;2024-01-16T08:47:57;8.63;;;2.25;;
82159;SDS011;71734;50.876;7.372;2024-01-16T08:50:24;7.78;;;2.22;;
82159;SDS011;71734;50.876;7.372;2024-01-16T08:52:51;7.13;;;2.22;;
82159;SDS011;71734;50.876;7.372;2024-01-16T08:55:17;7.70;;;2.30;;
82159;SDS011;71734;50.876;7.372;2024-01-16T08:57:44;8.68;;;2.15;;
82159;SDS011;71734;50.876;7.372;2024-01-16T09:00:12;8.68;;;2.30;;
82159;SDS011;71734;50.876;7.372;2024-01-16T09:02:40;11.13;;;1.90;;
82159;SDS011;71734;50.876;7.372;2024-01-16T09:05:07;8.15;;;1.95;;
82159;SDS011;71734;50.876;7.372;2024-01-16T09:07:33;7.45;;;2.00;;
82159;SDS011;71734;50.876;7.372;2024-01-16T09:10:00;8.00;;;1.95;;
82159;SDS011;71734;50.876;7.372;2024-01-16T09:12:27;8.48;;;1.73;;
82159;SDS011;71734;50.876;7.372;2024-01-16T09:14:53;7.85;;;1.70;;
82159;SDS011;71734;50.876;7.372;2024-01-16T09:17:21;7.38;;;2.10;;
82159;SDS011;71734;50.876;7.372;2024-01-16T09:19:47;6.32;;;1.55;;
82159;SDS011;71734;50.876;7.372;2024-01-16T09:22:14;7.95;;;1.88;;
82159;SDS011;71734;50.876;7.372;2024-01-16T09:24:41;8.00;;;1.70;;
82159;SDS011;71734;50.876;7.372;2024-01-16T09:27:07;6.50;;;1.70;;
82159;SDS011;71734;50.876;7.372;2024-01-16T09:29:34;8.98;;;1.70;;
82159;SDS011;71734;50.876;7.372;2024-01-16T09:32:01;5.60;;;1.80;;
82159;SDS011;71734;50.876;7.372;2024-01-16T09:34:29;7.30;;;1.70;;
82159;SDS011;71734;50.876;7.372;2024-01-16T09:36:56;7.32;;;1.60;;
82159;SDS011;71734;50.876;7.372;2024-01-16T09:39:24;8.88;;;1.70;;
82159;SDS011;71734;50.876;7.372;2024-01-16T09:41:51;5.78;;;1.50;;
82159;SDS011;71734;50.876;7.372;2024-01-16T09:44:18;6.65;;;1.65;;
82159;SDS011;71734;50.876;7.372;2024-01-16T09:46:45;7.45;;;1.85;;
82159;SDS011;71734;50.876;7.372;2024-01-16T09:49:14;6.40;;;1.70;;
82159;SDS011;71734;50.876;7.372;2024-01-16T09:51:45;7.65;;;1.55;;
82159;SDS011;71734;50.876;7.372;2024-01-16T09:54:12;8.32;;;1.70;;
82159;SDS011;71734;50.876;7.372;2024-01-16T09:56:39;6.30;;;1.60;;
82159;SDS011;71734;50.876;7.372;2024-01-16T09:59:08;5.97;;;1.55;;
82159;SDS011;71734;50.876;7.372;2024-01-16T10:01:35;5.32;;;1.50;;
82159;SDS011;71734;50.876;7.372;2024-01-16T10:04:05;5.10;;;1.45;;
82159;SDS011;71734;50.876;7.372;2024-01-16T10:06:31;11.10;;;1.88;;
82159;SDS011;71734;50.876;7.372;2024-01-16T10:09:01;4.63;;;1.45;;
82159;SDS011;71734;50.876;7.372;2024-01-16T10:11:27;6.05;;;1.52;;
82159;SDS011;71734;50.876;7.372;2024-01-16T10:13:55;7.80;;;1.88;;
82159;SDS011;71734;50.876;7.372;2024-01-16T10:16:22;5.95;;;1.70;;
82159;SDS011;71734;50.876;7.372;2024-01-16T10:18:48;6.90;;;1.77;;
82159;SDS011;71734;50.876;7.372;2024-01-16T10:21:20;6.55;;;1.70;;
82159;SDS011;71734;50.876;7.372;2024-01-16T10:23:48;7.20;;;1.90;;
82159;SDS011;71734;50.876;7.372;2024-01-16T10:26:16;8.45;;;1.60;;
82159;SDS011;71734;50.876;7.372;2024-01-16T10:28:44;6.35;;;1.88;;
82159;SDS011;71734;50.876;7.372;2024-01-16T10:31:10;8.90;;;1.83;;
82159;SDS011;71734;50.876;7.372;2024-01-16T10:33:39;5.72;;;1.58;;
82159;SDS011;71734;50.876;7.372;2024-01-16T10:36:09;6.72;;;1.92;;
82159;SDS011;71734;50.876;7.372;2024-01-16T10:38:37;6.65;;;1.60;;
82159;SDS011;71734;50.876;7.372;2024-01-16T10:41:05;6.30;;;1.55;;
82159;SDS011;71734;50.876;7.372;2024-01-16T10:43:34;5.45;;;1.42;;
82159;SDS011;71734;50.876;7.372;2024-01-16T10:46:06;6.63;;;1.50;;
82159;SDS011;71734;50.876;7.372;2024-01-16T10:48:34;7.80;;;1.67;;
82159;SDS011;71734;50.876;7.372;2024-01-16T10:51:01;8.70;;;1.80;;
82159;SDS011;71734;50.876;7.372;2024-01-16T10:53:28;6.22;;;1.67;;
82159;SDS011;71734;50.876;7.372;2024-01-16T10:55:59;7.93;;;1.98;;
82159;SDS011;71734;50.876;7.372;2024-01-16T10:58:27;6.50;;;1.80;;
82159;SDS011;71734;50.876;7.372;2024-01-16T11:01:01;8.68;;;2.03;;
82159;SDS011;71734;50.876;7.372;2024-01-16T11:03:33;6.80;;;1.45;;
82159;SDS011;71734;50.876;7.372;2024-01-16T11:06:02;6.35;;;1.85;;
82159;SDS011;71734;50.876;7.372;2024-01-16T11:08:32;6.07;;;1.50;;
82159;SDS011;71734;50.876;7.372;2024-01-16T11:11:01;5.60;;;1.52;;
82159;SDS011;71734;50.876;7.372;2024-01-16T11:13:29;5.80;;;1.60;;
82159;SDS011;71734;50.876;7.372;2024-01-16T11:16:00;5.00;;;1.40;;
82159;SDS011;71734;50.876;7.372;2024-01-16T11:18:27;8.65;;;1.70;;
82159;SDS011;71734;50.876;7.372;2024-01-16T11:20:56;7.55;;;1.83;;
82159;SDS011;71734;50.876;7.372;2024-01-16T11:23:24;7.72;;;1.50;;
82159;SDS011;71734;50.876;7.372;2024-01-16T11:25:53;7.70;;;1.70;;
82159;SDS011;71734;50.876;7.372;2024-01-16T11:28:28;6.22;;;1.50;;
82159;SDS011;71734;50.876;7.372;2024-01-16T11:30:55;7.70;;;1.88;;
82159;SDS011;71734;50.876;7.372;2024-01-16T11:33:42;6.38;;;1.50;;
82159;SDS011;71734;50.876;7.372;2024-01-16T11:39:09;6.30;;;1.55;;
82159;SDS011;71734;50.876;7.372;2024-01-16T11:41:47;7.13;;;1.50;;
82159;SDS011;71734;50.876;7.372;2024-01-16T11:44:24;6.88;;;1.42;;
82159;SDS011;71734;50.876;7.372;2024-01-16T11:47:15;5.60;;;1.40;;
82159;SDS011;71734;50.876;7.372;2024-01-16T11:52:11;8.02;;;2.00;;
82159;SDS011;71734;50.876;7.372;2024-01-16T11:54:41;6.95;;;1.38;;
82159;SDS011;71734;50.876;7.372;2024-01-16T11:57:30;7.07;;;1.40;;
82159;SDS011;71734;50.876;7.372;2024-01-16T12:00:17;7.53;;;1.35;;
82159;SDS011;71734;50.876;7.372;2024-01-16T12:02:49;4.20;;;1.40;;
82159;SDS011;71734;50.876;7.372;2024-01-16T12:05:20;6.43;;;1.67;;
82159;SDS011;71734;50.876;7.372;2024-01-16T12:07:47;7.43;;;1.58;;
82159;SDS011;71734;50.876;7.372;2024-01-16T12:10:15;6.25;;;1.50;;
82159;SDS011;71734;50.876;7.372;2024-01-16T12:12:42;5.53;;;1.38;;
82159;SDS011;71734;50.876;7.372;2024-01-16T12:15:16;7.80;;;1.40;;
82159;SDS011;71734;50.876;7.372;2024-01-16T12:17:55;5.07;;;1.38;;
82159;SDS011;71734;50.876;7.372;2024-01-16T12:20:25;9.13;;;1.40;;
82159;SDS011;71734;50.876;7.372;2024-01-16T12:22:59;6.22;;;1.40;;
82159;SDS011;71734;50.876;7.372;2024-01-16T12:25:28;7.53;;;1.40;;
82159;SDS011;71734;50.876;7.372;2024-01-16T12:27:56;5.07;;;1.42;;
82159;SDS011;71734;50.876;7.372;2024-01-16T12:30:24;7.55;;;1.60;;
82159;SDS011;71734;50.876;7.372;2024-01-16T12:33:04;7.00;;;1.30;;
82159;SDS011;71734;50.876;7.372;2024-01-16T12:35:33;7.15;;;1.58;;
82159;SDS011;71734;50.876;7.372;2024-01-16T12:38:01;5.22;;;1.20;;
82159;SDS011;71734;50.876;7.372;2024-01-16T12:40:30;5.35;;;1.45;;
82159;SDS011;71734;50.876;7.372;2024-01-16T12:42:57;5.35;;;1.40;;
82159;SDS011;71734;50.876;7.372;2024-01-16T12:45:24;7.13;;;1.73;;
82159;SDS011;71734;50.876;7.372;2024-01-16T12:47:51;8.32;;;2.25;;
82159;SDS011;71734;50.876;7.372;2024-01-16T12:50:19;6.72;;;1.60;;
82159;SDS011;71734;50.876;7.372;2024-01-16T12:52:47;5.82;;;1.48;;
82159;SDS011;71734;50.876;7.372;2024-01-16T12:55:14;4.35;;;1.25;;
82159;SDS011;71734;50.876;7.372;2024-01-16T12:57:42;8.40;;;1.70;;
82159;SDS011;71734;50.876;7.372;2024-01-16T13:00:21;5.10;;;1.50;;
82159;SDS011;71734;50.876;7.372;2024-01-16T13:02:49;7.93;;;1.77;;
82159;SDS011;71734;50.876;7.372;2024-01-16T13:05:17;5.72;;;1.58;;
82159;SDS011;71734;50.876;7.372;2024-01-16T13:07:44;7.05;;;1.70;;
82159;SDS011;71734;50.876;7.372;2024-01-16T13:10:25;6.43;;;1.55;;
82159;SDS011;71734;50.876;7.372;2024-01-16T13:12:51;9.40;;;1.50;;
82159;SDS011;71734;50.876;7.372;2024-01-16T13:15:22;8.95;;;1.70;;
82159;SDS011;71734;50.876;7.372;2024-01-16T13:17:49;6.35;;;1.88;;
82159;SDS011;71734;50.876;7.372;2024-01-16T13:20:15;5.43;;;1.52;;
82159;SDS011;71734;50.876;7.372;2024-01-16T13:22:42;7.93;;;1.60;;
82159;SDS011;71734;50.876;7.372;2024-01-16T13:25:09;5.47;;;1.42;;
82159;SDS011;71734;50.876;7.372;2024-01-16T13:27:36;6.47;;;1.63;;
82159;SDS011;71734;50.876;7.372;2024-01-16T13:30:03;7.80;;;2.00;;
82159;SDS011;71734;50.876;7.372;2024-01-16T13:32:31;4.72;;;1.35;;
82159;SDS011;71734;50.876;7.372;2024-01-16T13:34:57;7.85;;;2.00;;
82159;SDS011;71734;50.876;7.372;2024-01-16T13:37:25;7.60;;;1.85;;
82159;SDS011;71734;50.876;7.372;2024-01-16T13:39:51;5.63;;;1.30;;
82159;SDS011;71734;50.876;7.372;2024-01-16T13:42:19;6.88;;;1.60;;
82159;SDS011;71734;50.876;7.372;2024-01-16T13:44:46;7.05;;;1.60;;
82159;SDS011;71734;50.876;7.372;2024-01-16T13:50:51;5.10;;;1.27;;
82159;SDS011;71734;50.876;7.372;2024-01-16T13:53:17;7.00;;;1.85;;
82159;SDS011;71734;50.876;7.372;2024-01-16T13:55:44;4.78;;;1.20;;
82159;SDS011;71734;50.876;7.372;2024-01-16T13:58:15;6.15;;;1.58;;
82159;SDS011;71734;50.876;7.372;2024-01-16T14:00:41;5.88;;;1.58;;
82159;SDS011;71734;50.876;7.372;2024-01-16T14:03:23;5.55;;;1.60;;
82159;SDS011;71734;50.876;7.372;2024-01-16T14:05:49;9.45;;;2.17;;
82159;SDS011;71734;50.876;7.372;2024-01-16T14:08:16;4.90;;;1.65;;
82159;SDS011;71734;50.876;7.372;2024-01-16T14:10:43;5.45;;;1.67;;
82159;SDS011;71734;50.876;7.372;2024-01-16T14:13:10;5.03;;;1.60;;
82159;SDS011;71734;50.876;7.372;2024-01-16T14:15:38;7.25;;;1.75;;
82159;SDS011;71734;50.876;7.372;2024-01-16T14:18:04;6.90;;;1.80;;
82159;SDS011;71734;50.876;7.372;2024-01-16T14:20:31;6.90;;;1.73;;
82159;SDS011;71734;50.876;7.372;2024-01-16T14:22:58;7.95;;;1.90;;
82159;SDS011;71734;50.876;7.372;2024-01-16T14:25:26;6.47;;;1.42;;
82159;SDS011;71734;50.876;7.372;2024-01-16T14:27:56;7.43;;;1.75;;
82159;SDS011;71734;50.876;7.372;2024-01-16T14:30:41;7.88;;;2.10;;
82159;SDS011;71734;50.876;7.372;2024-01-16T14:33:10;7.05;;;1.83;;
82159;SDS011;71734;50.876;7.372;2024-01-16T14:35:40;6.90;;;1.50;;
82159;SDS011;71734;50.876;7.372;2024-01-16T14:38:07;6.78;;;1.65;;
82159;SDS011;71734;50.876;7.372;2024-01-16T14:40:33;5.05;;;1.55;;
82159;SDS011;71734;50.876;7.372;2024-01-16T14:43:00;5.72;;;2.00;;
82159;SDS011;71734;50.876;7.372;2024-01-16T14:45:29;7.28;;;1.90;;
82159;SDS011;71734;50.876;7.372;2024-01-16T14:47:58;5.43;;;1.58;;
82159;SDS011;71734;50.876;7.372;2024-01-16T14:50:25;4.70;;;1.42;;
82159;SDS011;71734;50.876;7.372;2024-01-16T14:52:58;5.43;;;2.05;;